createdAt,value
2023-03-06T00:00:31.420Z,54.68
2023-03-06T00:02:59.159Z,54.42
2023-03-06T00:05:27.273Z,54.63
2023-03-06T00:07:54.938Z,54.58
2023-03-06T00:10:26.473Z,54.53
2023-03-06T00:12:56.513Z,54.59
2023-03-06T00:15:25.503Z,54.43
2023-03-06T00:17:53.677Z,54.65
2023-03-06T00:20:22.539Z,54.47
2023-03-06T00:22:50.503Z,54.58
2023-03-06T00:25:21.174Z,54.64
2023-03-06T00:27:50.769Z,54.58
2023-03-06T00:30:20.723Z,54.73
2023-03-06T00:32:48.409Z,54.73
2023-03-06T00:35:16.663Z,54.82
2023-03-06T00:37:44.980Z,54.95
2023-03-06T00:40:15.548Z,54.93
2023-03-06T00:42:43.595Z,54.68
2023-03-06T00:45:13.618Z,54.83
2023-03-06T00:47:41.783Z,54.82
2023-03-06T00:50:11.333Z,54.80
2023-03-06T00:52:39.200Z,55.08
2023-03-06T00:55:07.903Z,54.84
2023-03-06T00:57:35.564Z,55.17
2023-03-06T01:00:03.556Z,54.99
2023-03-06T01:02:32.657Z,54.98
2023-03-06T01:05:00.499Z,54.96
2023-03-06T01:07:28.535Z,55.14
2023-03-06T01:09:56.145Z,55.19
2023-03-06T01:12:23.744Z,55.00
2023-03-06T01:14:51.508Z,55.14
2023-03-06T01:17:19.124Z,55.17
2023-03-06T01:19:48.110Z,55.23
2023-03-06T01:22:15.752Z,55.37
2023-03-06T01:24:43.369Z,55.36
2023-03-06T01:27:11.007Z,55.38
2023-03-06T01:29:38.641Z,55.26
2023-03-06T01:32:06.804Z,55.27
2023-03-06T01:34:34.481Z,55.67
2023-03-06T01:37:03.443Z,55.52
2023-03-06T01:39:31.614Z,55.23
2023-03-06T01:41:59.227Z,55.33
2023-03-06T01:44:26.887Z,55.50
2023-03-06T01:46:54.489Z,55.25
2023-03-06T01:49:24.621Z,55.40
2023-03-06T01:51:55.587Z,55.60
2023-03-06T01:54:27.767Z,55.03
2023-03-06T01:57:00.315Z,55.44
2023-03-06T01:59:29.562Z,55.40
2023-03-06T02:01:59.630Z,55.51
2023-03-06T02:04:27.613Z,55.30
2023-03-06T02:06:56.197Z,55.30
2023-03-06T02:09:29.785Z,55.57
2023-03-06T02:11:57.707Z,55.71
2023-03-06T02:14:25.563Z,55.60
2023-03-06T02:16:53.233Z,55.59
2023-03-06T02:19:33.451Z,55.40
2023-03-06T02:22:01.315Z,55.37
2023-03-06T02:24:39.900Z,55.56
2023-03-06T02:27:10.893Z,55.51
2023-03-06T02:29:38.490Z,55.82
2023-03-06T02:32:06.613Z,55.52
2023-03-06T02:34:50.686Z,55.05
2023-03-06T02:37:18.462Z,55.77
2023-03-06T02:39:49.471Z,55.58
2023-03-06T02:42:23.966Z,55.65
2023-03-06T02:44:54.775Z,55.63
2023-03-06T02:47:22.799Z,55.38
2023-03-06T02:49:50.448Z,55.76
2023-03-06T02:52:18.105Z,55.82
2023-03-06T02:54:45.751Z,55.76
2023-03-06T02:57:13.533Z,55.48
2023-03-06T02:59:42.497Z,55.83
2023-03-06T03:02:10.101Z,55.77
2023-03-06T03:04:37.822Z,55.74
2023-03-06T03:07:05.719Z,55.56
2023-03-06T03:09:36.862Z,55.84
2023-03-06T03:12:06.251Z,55.24
2023-03-06T03:14:34.129Z,55.86
2023-03-06T03:17:03.412Z,55.68
2023-03-06T03:19:31.028Z,55.77
2023-03-06T03:21:58.702Z,55.86
2023-03-06T03:24:26.922Z,55.79
2023-03-06T03:26:55.031Z,55.78
2023-03-06T03:29:22.683Z,55.78
2023-03-06T03:31:50.300Z,55.87
2023-03-06T03:34:19.728Z,55.69
2023-03-06T03:36:47.750Z,55.84
2023-03-06T03:39:15.369Z,55.63
2023-03-06T03:41:43.022Z,55.82
2023-03-06T03:44:11.010Z,55.90
2023-03-06T03:46:39.696Z,56.05
2023-03-06T03:49:07.588Z,55.77
2023-03-06T03:51:36.561Z,55.95
2023-03-06T03:54:06.003Z,55.90
2023-03-06T03:56:34.428Z,55.77
2023-03-06T03:59:02.013Z,56.08
2023-03-06T04:01:29.648Z,55.97
2023-03-06T04:03:57.267Z,55.95
2023-03-06T04:06:24.845Z,55.93
2023-03-06T04:08:53.864Z,56.10
2023-03-06T04:11:21.494Z,56.07
2023-03-06T04:13:49.298Z,55.85
2023-03-06T04:16:16.987Z,55.96
2023-03-06T04:18:44.612Z,56.14
2023-03-06T04:21:12.753Z,56.18
2023-03-06T04:23:40.504Z,55.86
2023-03-06T04:26:10.172Z,56.17
2023-03-06T04:28:37.830Z,55.83
2023-03-06T04:31:05.987Z,55.95
2023-03-06T04:33:33.623Z,56.01
2023-03-06T04:36:01.249Z,55.78
2023-03-06T04:38:28.815Z,56.19
2023-03-06T04:40:56.429Z,55.99
2023-03-06T04:43:25.595Z,56.24
2023-03-06T04:45:53.241Z,55.90
2023-03-06T04:48:20.973Z,55.96
2023-03-06T04:50:48.614Z,55.90
2023-03-06T04:53:16.937Z,55.88
2023-03-06T04:55:44.586Z,56.02
2023-03-06T04:58:13.078Z,56.08
2023-03-06T05:00:42.077Z,55.79
2023-03-06T05:03:09.902Z,55.83
2023-03-06T05:05:37.517Z,55.98
2023-03-06T05:08:06.626Z,56.14
2023-03-06T05:10:34.494Z,55.93
2023-03-06T05:13:02.100Z,55.85
2023-03-06T05:15:29.741Z,55.76
2023-03-06T05:17:58.734Z,55.93
2023-03-06T05:20:26.408Z,55.77
2023-03-06T05:22:54.019Z,56.08
2023-03-06T05:25:21.603Z,55.93
2023-03-06T05:27:49.209Z,56.13
2023-03-06T05:30:17.164Z,56.01
2023-03-06T05:32:45.271Z,55.84
2023-03-06T05:35:19.720Z,56.13
2023-03-06T05:37:47.501Z,56.19
2023-03-06T05:40:16.390Z,56.20
2023-03-06T05:42:44.245Z,56.20
2023-03-06T05:45:12.916Z,56.13
2023-03-06T05:47:40.566Z,55.98
2023-03-06T05:50:10.444Z,56.28
2023-03-06T05:52:40.522Z,56.23
2023-03-06T05:55:11.507Z,56.30
2023-03-06T05:57:39.122Z,56.06
2023-03-06T06:00:08.224Z,56.30
2023-03-06T06:02:35.891Z,56.19
2023-03-06T06:05:04.238Z,56.09
2023-03-06T06:07:31.860Z,56.32
2023-03-06T06:10:03.543Z,56.32
2023-03-06T06:12:31.653Z,56.29
2023-03-06T06:14:59.374Z,55.82
2023-03-06T06:17:27.060Z,56.36
2023-03-06T06:19:54.840Z,56.07
2023-03-06T06:22:22.418Z,56.38
2023-03-06T06:24:49.981Z,56.08
2023-03-06T06:27:19.012Z,56.20
2023-03-06T06:29:46.586Z,56.25
2023-03-06T06:32:14.243Z,56.09
2023-03-06T06:34:41.838Z,56.53
2023-03-06T06:37:09.452Z,56.38
2023-03-06T06:39:37.027Z,56.39
2023-03-06T06:42:28.171Z,56.27
2023-03-06T06:44:53.778Z,56.37
2023-03-06T06:47:23.966Z,56.41
2023-03-06T06:49:53.472Z,56.29
2023-03-06T06:52:21.416Z,56.32
2023-03-06T06:54:49.058Z,56.17
2023-03-06T06:57:17.844Z,56.43
2023-03-06T06:59:45.455Z,56.19
2023-03-06T07:02:16.469Z,56.37
2023-03-06T07:05:00.760Z,56.23
2023-03-06T07:07:30.500Z,56.47
2023-03-06T07:09:58.187Z,56.38
2023-03-06T07:12:26.047Z,56.25
2023-03-06T07:14:53.792Z,56.60
2023-03-06T07:17:22.753Z,56.55
2023-03-06T07:19:50.590Z,56.44
2023-03-06T07:22:18.281Z,56.29
2023-03-06T07:24:45.915Z,56.46
2023-03-06T07:27:13.540Z,56.56
2023-03-06T07:29:43.544Z,56.43
2023-03-06T07:32:11.326Z,56.44
2023-03-06T07:34:40.298Z,56.47
2023-03-06T07:37:07.888Z,56.40
2023-03-06T07:39:35.794Z,56.55
2023-03-06T07:42:03.492Z,56.22
2023-03-06T07:44:31.799Z,56.44
2023-03-06T07:46:59.641Z,56.41
2023-03-06T07:49:27.332Z,56.50
2023-03-06T07:51:56.295Z,56.27
2023-03-06T07:54:23.872Z,56.43
2023-03-06T07:56:51.600Z,56.39
2023-03-06T07:59:19.702Z,56.53
2023-03-06T08:01:47.278Z,56.41
2023-03-06T08:04:14.983Z,56.46
2023-03-06T08:06:42.585Z,56.40
2023-03-06T08:09:11.513Z,56.68
2023-03-06T08:11:39.224Z,56.54
2023-03-06T08:14:06.819Z,56.61
2023-03-06T08:16:34.528Z,56.76
2023-03-06T08:19:02.277Z,56.38
2023-03-06T08:21:30.121Z,56.78
2023-03-06T08:23:58.349Z,56.76
2023-03-06T08:26:29.031Z,56.50
2023-03-06T08:28:59.242Z,56.43
2023-03-06T08:31:30.471Z,56.50
2023-03-06T08:33:59.609Z,56.71
2023-03-06T08:36:27.374Z,56.88
2023-03-06T08:38:55.306Z,56.40
2023-03-06T08:41:23.549Z,56.45
2023-03-06T08:43:52.950Z,56.71
2023-03-06T08:46:22.591Z,56.49
2023-03-06T08:48:50.217Z,56.64
2023-03-06T08:51:18.296Z,56.65
2023-03-06T08:53:46.745Z,56.43
2023-03-06T08:56:18.636Z,56.68
2023-03-06T08:58:46.706Z,56.67
2023-03-06T09:01:18.174Z,56.77
2023-03-06T09:03:45.833Z,56.68
2023-03-06T09:06:14.722Z,56.83
2023-03-06T09:08:43.156Z,56.75
2023-03-06T09:11:11.110Z,56.67
2023-03-06T09:13:38.861Z,56.99
2023-03-06T09:16:07.478Z,56.87
2023-03-06T09:18:36.825Z,56.49
2023-03-06T09:21:05.576Z,56.94
2023-03-06T09:23:33.751Z,56.83
2023-03-06T09:26:02.106Z,56.77
2023-03-06T09:28:30.052Z,56.89
2023-03-06T09:30:57.800Z,56.77
2023-03-06T09:33:25.556Z,56.61
2023-03-06T09:35:56.675Z,56.81
2023-03-06T09:38:26.488Z,56.61
2023-03-06T09:41:04.321Z,56.68
2023-03-06T09:43:35.449Z,56.60
2023-03-06T09:46:08.264Z,56.86
2023-03-06T09:48:47.659Z,56.79
2023-03-06T09:51:20.505Z,56.89
2023-03-06T09:53:59.925Z,56.86
2023-03-06T09:56:31.815Z,56.79
2023-03-06T09:59:08.020Z,57.10
2023-03-06T10:01:41.092Z,57.01
2023-03-06T10:04:25.137Z,57.11
2023-03-06T10:06:57.495Z,56.92
2023-03-06T10:09:29.765Z,56.58
2023-03-06T10:12:01.815Z,56.59
2023-03-06T10:14:36.567Z,56.77
2023-03-06T10:17:05.329Z,56.81
2023-03-06T10:19:35.568Z,56.71
2023-03-06T10:22:15.751Z,57.03
2023-03-06T10:32:54.726Z,56.96
2023-03-06T10:35:25.103Z,56.89
2023-03-06T10:37:59.830Z,57.01
2023-03-06T10:40:35.511Z,56.90
2023-03-06T10:45:47.290Z,57.04
2023-03-06T10:48:19.613Z,56.78
2023-03-06T10:54:32.998Z,57.14
2023-03-06T10:57:18.133Z,57.07
2023-03-06T10:59:53.484Z,56.94
2023-03-06T11:02:32.046Z,57.11
2023-03-06T11:05:01.345Z,56.81
2023-03-06T11:07:30.196Z,57.03
2023-03-06T11:10:07.644Z,56.85
2023-03-06T11:12:37.208Z,57.20
2023-03-06T11:15:21.867Z,57.33
2023-03-06T11:17:55.838Z,57.28
2023-03-06T11:20:26.318Z,57.16
2023-03-06T11:22:57.079Z,56.98
2023-03-06T11:25:30.965Z,56.97
2023-03-06T11:28:03.512Z,56.97
2023-03-06T11:30:37.027Z,57.25
2023-03-06T11:33:14.448Z,57.12
2023-03-06T11:35:59.116Z,56.92
2023-03-06T11:38:36.926Z,56.96
2023-03-06T11:41:14.819Z,56.99
2023-03-06T11:43:50.775Z,56.79
2023-03-06T11:46:22.777Z,57.03
2023-03-06T11:48:54.519Z,56.89
2023-03-06T11:51:25.754Z,56.93
2023-03-06T11:53:54.997Z,57.11
2023-03-06T11:56:32.245Z,56.87
2023-03-06T11:59:25.447Z,56.87
2023-03-06T12:02:00.502Z,56.92
2023-03-06T12:04:50.898Z,57.01
2023-03-06T12:07:26.963Z,57.00
2023-03-06T12:09:59.615Z,57.04
2023-03-06T12:12:43.116Z,57.19
2023-03-06T12:15:23.280Z,56.93
2023-03-06T12:18:11.882Z,57.15
2023-03-06T12:20:53.418Z,57.25
2023-03-06T12:23:39.293Z,57.22
2023-03-06T12:26:25.096Z,57.24
2023-03-06T12:29:09.836Z,57.07
2023-03-06T12:31:51.631Z,57.32
2023-03-06T12:34:30.973Z,56.95
2023-03-06T12:37:09.602Z,57.00
2023-03-06T12:39:54.498Z,57.22
2023-03-06T12:42:54.951Z,57.34
2023-03-06T12:45:31.916Z,57.06
2023-03-06T12:48:00.662Z,56.81
2023-03-06T12:50:31.284Z,57.45
2023-03-06T12:53:01.534Z,57.27
2023-03-06T12:55:37.700Z,57.31
2023-03-06T12:58:35.731Z,57.25
2023-03-06T13:01:12.360Z,57.11
2023-03-06T13:04:02.297Z,57.31
2023-03-06T13:06:51.245Z,57.32
2023-03-06T13:09:23.298Z,57.44
2023-03-06T13:12:08.554Z,57.44
2023-03-06T13:14:54.814Z,57.57
2023-03-06T13:22:28.362Z,57.42
2023-03-06T13:25:34.723Z,57.49
2023-03-06T13:28:03.140Z,57.10
2023-03-06T13:30:44.060Z,57.34
2023-03-06T13:33:59.124Z,57.43
2023-03-06T13:36:28.648Z,57.32
2023-03-06T13:39:06.219Z,57.37
2023-03-06T13:47:01.706Z,57.22
2023-03-06T13:49:30.308Z,57.44
2023-03-06T13:52:09.505Z,57.24
2023-03-06T13:54:48.078Z,57.49
2023-03-06T13:57:30.810Z,57.18
2023-03-06T14:00:20.387Z,57.27
2023-03-06T14:03:32.336Z,57.34
2023-03-06T14:06:01.448Z,57.35
2023-03-06T14:08:31.305Z,57.41
2023-03-06T14:11:02.718Z,57.64
2023-03-06T14:13:46.695Z,57.47
2023-03-06T14:16:21.003Z,57.44
2023-03-06T14:18:50.360Z,57.53
2023-03-06T14:21:30.438Z,57.10
2023-03-06T14:24:00.696Z,57.17
2023-03-06T14:26:32.727Z,57.34
2023-03-06T14:29:02.188Z,57.34
2023-03-06T14:31:33.079Z,57.53
2023-03-06T14:34:02.451Z,57.42
2023-03-06T14:36:35.274Z,57.32
2023-03-06T14:39:06.380Z,57.41
2023-03-06T14:41:37.024Z,57.34
2023-03-06T14:44:20.468Z,57.49
2023-03-06T14:46:50.455Z,57.53
2023-03-06T14:49:20.073Z,57.68
2023-03-06T14:51:51.189Z,57.54
2023-03-06T14:54:21.219Z,57.38
2023-03-06T14:56:53.044Z,57.43
2023-03-06T14:59:25.956Z,57.57
2023-03-06T15:01:58.754Z,57.47
2023-03-06T15:04:31.408Z,57.19
2023-03-06T15:07:00.962Z,57.30
2023-03-06T15:09:32.494Z,57.32
2023-03-06T15:12:02.160Z,57.65
2023-03-06T15:14:33.030Z,57.47
2023-03-06T15:17:20.324Z,57.63
2023-03-06T15:19:50.222Z,57.59
2023-03-06T15:22:26.740Z,57.33
2023-03-06T15:24:55.266Z,57.55
2023-03-06T15:27:31.250Z,57.40
2023-03-06T15:30:12.293Z,57.34
2023-03-06T15:32:42.889Z,57.35
2023-03-06T15:35:32.694Z,57.54
2023-03-06T15:38:02.972Z,57.49
2023-03-06T15:40:31.918Z,57.54
2023-03-06T15:43:00.516Z,57.59
2023-03-06T15:45:29.431Z,57.48
2023-03-06T15:47:57.151Z,57.55
2023-03-06T15:50:26.358Z,57.52
2023-03-06T15:52:54.600Z,57.39
2023-03-06T15:55:25.791Z,57.57
2023-03-06T15:57:56.408Z,57.67
2023-03-06T16:00:28.613Z,57.56
2023-03-06T16:02:56.623Z,57.62
2023-03-06T16:05:24.898Z,57.56
2023-03-06T16:07:52.563Z,57.56
2023-03-06T16:10:23.977Z,57.86
2023-03-06T16:12:54.447Z,57.48
2023-03-06T16:15:25.307Z,57.74
2023-03-06T16:17:53.032Z,57.88
2023-03-06T16:20:26.118Z,57.52
2023-03-06T16:22:54.818Z,57.53
2023-03-06T16:25:25.921Z,57.81
2023-03-06T16:27:56.747Z,57.69
2023-03-06T16:30:25.522Z,57.29
2023-03-06T16:32:53.240Z,57.30
2023-03-06T16:35:20.929Z,57.76
2023-03-06T16:37:48.888Z,57.39
2023-03-06T16:40:21.993Z,57.40
2023-03-06T16:42:53.435Z,57.57
2023-03-06T16:45:22.511Z,57.67
2023-03-06T16:47:50.572Z,57.43
2023-03-06T16:50:24.447Z,57.54
2023-03-06T16:52:55.974Z,57.58
2023-03-06T16:55:25.900Z,57.61
2023-03-06T16:58:01.573Z,57.55
2023-03-06T17:00:33.637Z,57.49
2023-03-06T17:03:03.660Z,57.82
2023-03-06T17:05:35.357Z,57.72
2023-03-06T17:08:35.497Z,57.45
2023-03-06T17:19:02.263Z,57.68
2023-03-06T17:39:25.658Z,57.55
2023-03-06T17:47:06.045Z,57.97
2023-03-06T17:53:45.950Z,57.72
2023-03-06T17:57:18.614Z,57.95
2023-03-06T18:04:14.252Z,57.61
2023-03-06T18:25:27.035Z,57.83
2023-03-06T18:42:50.235Z,57.94
2023-03-06T18:56:27.472Z,57.95
2023-03-06T18:59:18.213Z,58.03
2023-03-06T19:01:47.208Z,57.98
2023-03-06T19:04:15.138Z,57.90
2023-03-06T19:06:42.744Z,57.99
2023-03-06T19:09:11.980Z,57.88
2023-03-06T19:11:39.619Z,57.88
2023-03-06T19:16:55.167Z,57.89
2023-03-06T19:19:25.389Z,58.12
2023-03-06T19:21:51.722Z,58.01
2023-03-06T19:24:18.191Z,57.75
2023-03-06T19:26:44.432Z,57.92
2023-03-06T19:29:10.752Z,57.68
2023-03-06T19:31:37.193Z,58.00
2023-03-06T19:34:04.408Z,57.96
2023-03-06T19:44:02.516Z,57.98
2023-03-06T19:46:29.136Z,57.94
2023-03-06T19:48:58.370Z,58.02
2023-03-06T19:51:26.258Z,57.88
2023-03-06T19:53:54.300Z,58.04
2023-03-06T19:56:23.958Z,58.01
2023-03-06T19:58:52.132Z,57.86
2023-03-06T20:01:22.819Z,58.11
2023-03-06T20:03:50.587Z,57.99
2023-03-06T20:06:20.657Z,58.10
2023-03-06T20:08:49.118Z,58.31
2023-03-06T20:11:17.947Z,57.91
2023-03-06T20:13:47.522Z,57.91
2023-03-06T20:16:15.658Z,57.94
2023-03-06T20:18:45.402Z,57.85
2023-03-06T20:21:14.358Z,58.37
2023-03-06T20:23:42.270Z,58.02
2023-03-06T20:26:13.007Z,58.08
2023-03-06T20:28:42.332Z,57.80
2023-03-06T20:31:11.218Z,58.02
2023-03-06T20:33:38.915Z,57.99
2023-03-06T20:36:13.058Z,58.13
2023-03-06T20:38:40.970Z,58.18
2023-03-06T20:41:13.986Z,58.09
2023-03-06T20:43:41.589Z,58.00
2023-03-06T20:46:09.325Z,57.98
2023-03-06T20:48:37.067Z,58.05
2023-03-06T20:51:07.274Z,57.77
2023-03-06T20:53:36.385Z,58.04
2023-03-06T20:56:04.981Z,57.78
2023-03-06T20:58:32.649Z,57.98
2023-03-06T21:01:02.337Z,57.81
2023-03-06T21:03:30.175Z,58.05
2023-03-06T21:05:57.786Z,58.07
2023-03-06T21:08:25.688Z,58.14
2023-03-06T21:10:54.999Z,57.80
2023-03-06T21:13:22.659Z,58.10
2023-03-06T21:15:50.323Z,57.87
2023-03-06T21:18:17.998Z,58.03
2023-03-06T21:20:45.665Z,57.97
2023-03-06T21:23:13.275Z,57.94
2023-03-06T21:25:48.603Z,58.21
2023-03-06T21:28:18.359Z,57.90
2023-03-06T21:30:46.203Z,58.03
2023-03-06T21:33:15.981Z,57.80
2023-03-06T21:35:45.384Z,58.07
2023-03-06T21:38:13.228Z,58.09
2023-03-06T21:40:41.481Z,58.06
2023-03-06T21:43:09.170Z,58.22
2023-03-06T21:45:38.278Z,58.12
2023-03-06T21:48:06.435Z,58.05
2023-03-06T21:50:35.068Z,58.18
2023-03-06T21:53:02.643Z,58.20
2023-03-06T21:55:30.302Z,58.20
2023-03-06T21:57:57.955Z,58.17
2023-03-06T22:00:25.785Z,58.20
2023-03-06T22:10:38.958Z,58.14
2023-03-06T22:13:05.268Z,58.06
2023-03-06T22:15:31.492Z,58.49
2023-03-06T22:17:57.734Z,58.33
2023-03-06T22:20:23.975Z,58.27
2023-03-06T22:22:50.162Z,58.05
2023-03-06T22:25:16.613Z,58.18
2023-03-06T22:27:43.770Z,58.22
2023-03-06T22:35:13.004Z,58.22
2023-03-06T22:37:39.406Z,58.21
2023-03-06T22:40:06.721Z,58.29
2023-03-06T22:42:32.962Z,58.13
2023-03-06T22:44:59.168Z,58.16
2023-03-06T22:47:25.401Z,58.21
2023-03-06T22:49:51.844Z,58.23
2023-03-06T22:52:19.319Z,57.88
